Flight Track Log - Related Links

Times and Time Zones

All times are in EDT time to prevent confusion due to time zone crossing. See the UAL4588 flight status page for this flight to view local times or setup timezone preferences in your user account.

Time Position Orientation Groundspeed Altitude Reporting Facility
EDT Latitude Longitude Course Direction KTS MPH feet Rate Location/Type
Thu 10:17:58 AM 29.9781 -95.2933 27° Northeast 167 192 800  Level Houston Center
Thu 10:18:35 AM 30.0039 -95.2781 27° Northeast 202 232 1,600 1,658 Climbing Houston Center
Thu 10:19:14 AM 30.0392 -95.2839 352° North 225 259 2,900 2,262 Climbing Houston Center
Thu 10:19:36 AM 30.0658 -95.2875 353° North 230 265 3,900 968 Climbing Houston Center
Thu 10:20:16 AM 30.1028 -95.3089 333° Northwest 236 272 3,900 590 Level Houston Center
Thu 10:20:37 AM 30.1261 -95.3286 324° Northwest 266 306 4,500 1,935 Climbing Houston Center
Thu 10:21:18 AM 30.1592 -95.3536 327° Northwest 244 281 5,900 2,330 Climbing Houston Center
Thu 10:22:20 AM 30.2169 -95.3994 326° Northwest 251 289 8,500 2,129 Climbing Houston Center
Thu 10:23:22 AM 30.2800 -95.4492 326° Northwest 262 302 10,300 1,258 Climbing Houston Center
Thu 10:24:24 AM 30.3669 -95.5181 326° Northwest 329 379 11,100 1,016 Climbing Houston Center
Thu 10:25:26 AM 30.4461 -95.5819 325° Northwest 346 398 12,400 1,317 Climbing Houston Center
Thu 10:26:27 AM 30.5300 -95.6492 325° Northwest 361 415 13,800 1,415 Climbing Houston Center
Thu 10:27:29 AM 30.6222 -95.6981 335° Northwest 366 421 15,300 1,500 Climbing Houston Center
Thu 10:28:31 AM 30.7194 -95.7508 335° Northwest 368 423 16,900 1,500 Climbing Houston Center
Thu 10:29:33 AM 30.8131 -95.8006 335° Northwest 368 423 18,400 1,452 Climbing Houston Center
Thu 10:30:35 AM 30.9083 -95.8511 336° Northwest 374 430 19,900 1,452 Climbing Houston Center
Thu 10:31:37 AM 31.0217 -95.9122 335° Northwest 375 432 21,400 1,258 Climbing Houston Center
Thu 10:32:39 AM 31.1200 -95.9650 335° Northwest 385 443 22,500 1,016 Climbing Houston Center
Thu 10:33:41 AM 31.2258 -96.0061 342° North 397 457 23,500 1,016 Climbing Houston Center
Thu 10:34:43 AM 31.3322 -96.0469 342° North 400 460 24,600 1,016 Climbing Houston Center
Thu 10:35:45 AM 31.4361 -96.0872 342° North 404 465 25,600 823 Climbing Houston Center
Thu 10:36:47 AM 31.5458 -96.1314 341° North 412 474 26,300 905 Climbing Houston Center
Thu 10:37:51 AM 31.6792 -96.1831 342° North 411 473 27,500 1,065 Climbing Fort Worth Center
Thu 10:38:51 AM 31.7881 -96.2256 342° North 403 464 28,500 1,000 Climbing Fort Worth Center
Thu 10:39:51 AM 31.8828 -96.2953 328° Northwest 403 464 29,500 950 Climbing Fort Worth Center
Thu 10:40:51 AM 31.9689 -96.3750 322° Northwest 398 458 30,400 1,000 Climbing Fort Worth Center
Thu 10:41:51 AM 32.0572 -96.4550 322° Northwest 404 465 31,500 1,000 Climbing Fort Worth Center
Thu 10:42:51 AM 32.1478 -96.5400 322° Northwest 404 465 32,400 950 Climbing Fort Worth Center
Thu 10:43:51 AM 32.2339 -96.6225 321° Northwest 404 465 33,400 950 Climbing Fort Worth Center
Thu 10:44:51 AM 32.3136 -96.6981 321° Northwest 399 459 34,300 1,000 Climbing Fort Worth Center
Thu 10:45:51 AM 32.4122 -96.7858 323° Northwest 404 465 35,400 850 Climbing Fort Worth Center
Thu 10:46:51 AM 32.4878 -96.8592 321° Northwest 396 456 36,000 300 Climbing Fort Worth Center
Thu 10:47:51 AM 32.5842 -96.9450 323° Northwest 401 461 36,000  Level Fort Worth Center
Thu 10:48:51 AM 32.6658 -97.0236 321° Northwest 409 471 36,000  Level Fort Worth Center
Thu 10:49:51 AM 32.7683 -97.1194 322° Northwest 421 484 36,000  Level Fort Worth Center
Thu 10:50:51 AM 32.8542 -97.1983 322° Northwest 426 490 36,000  Level Fort Worth Center
Thu 10:51:51 AM 32.9586 -97.2972 322° Northwest 426 490 36,000  Level Fort Worth Center
Thu 10:52:51 AM 33.0442 -97.3764 322° Northwest 426 490 36,000  Level Fort Worth Center
Thu 10:53:51 AM 33.1486 -97.4781 321° Northwest 431 496 36,000  Level Fort Worth Center
Thu 10:54:51 AM 33.2342 -97.5575 322° Northwest 431 496 36,000  Level Fort Worth Center
Thu 10:55:51 AM 33.3258 -97.6472 321° Northwest 426 490 36,000  Level Fort Worth Center
Thu 10:56:51 AM 33.4278 -97.7444 321° Northwest 426 490 36,000  Level Fort Worth Center
Thu 10:57:51 AM 33.5131 -97.8269 321° Northwest 426 490 36,000  Level Fort Worth Center
Thu 10:58:51 AM 33.6067 -97.9172 321° Northwest 421 484 36,000  Level Fort Worth Center
Thu 10:59:51 AM 33.7003 -98.0028 323° Northwest 431 496 36,000  Level Fort Worth Center
Thu 11:00:51 AM 33.7875 -98.0983 318° Northwest 425 489 36,000  Level Fort Worth Center
Thu 11:01:51 AM 33.8431 -98.2239 298° West 405 466 36,000  Level Fort Worth Center
Thu 11:02:51 AM 33.8986 -98.3419 300° West 411 473 36,000  Level Fort Worth Center
Thu 11:03:51 AM 33.9497 -98.4575 298° West 411 473 36,000  Level Fort Worth Center
Thu 11:04:51 AM 34.0094 -98.5686 303° West 400 460 36,000  Level Fort Worth Center
Thu 11:05:51 AM 34.0708 -98.6772 304° West 400 460 36,000  Level Fort Worth Center
Thu 11:06:51 AM 34.1364 -98.7986 303° West 413 475 36,000  Level Fort Worth Center
Thu 11:07:51 AM 34.1997 -98.9125 304° West 413 475 36,000  Level Fort Worth Center
Thu 11:08:51 AM 34.2653 -99.0242 305° West 413 475 36,000  Level Fort Worth Center
Thu 11:09:51 AM 34.3264 -99.1311 305° West 408 470 36,000  Level Fort Worth Center
Thu 11:10:51 AM 34.3975 -99.2583 304° West 407 468 36,000  Level Fort Worth Center
Thu 11:11:51 AM 34.4625 -99.3731 305° West 412 474 36,000  Level Fort Worth Center
Thu 11:12:51 AM 34.5233 -99.4878 303° West 412 474 36,000  Level Fort Worth Center
Thu 11:13:51 AM 34.5881 -99.6006 305° West 412 474 36,000  Level Fort Worth Center
Thu 11:14:51 AM 34.6508 -99.7131 304° West 412 474 36,000  Level Fort Worth Center
Thu 11:16:43 AM 34.7692 -99.9239 304° West 410 472 36,000  Level Albuquerque Center
Thu 11:17:45 AM 34.8325 -100.0397 304° West 410 472 36,000  Level Albuquerque Center
Thu 11:18:47 AM 34.8972 -100.1558 304° West 411 473 36,000  Level Albuquerque Center
Thu 11:19:50 AM 34.9589 -100.2689 304° West 403 464 36,000  Level Albuquerque Center
Thu 11:20:52 AM 35.0281 -100.3958 304° West 399 459 36,000  Level Albuquerque Center
Thu 11:21:54 AM 35.0867 -100.5047 303° West 391 450 36,000  Level Albuquerque Center
Thu 11:22:56 AM 35.1461 -100.6161 303° West 390 449 36,000  Level Albuquerque Center
Thu 11:23:58 AM 35.2064 -100.7281 303° West 395 455 36,000  Level Albuquerque Center
Thu 11:25:00 AM 35.2664 -100.8400 303° West 395 455 36,000  Level Albuquerque Center
Thu 11:26:02 AM 35.3383 -100.9756 303° West 397 457 36,000  Level Albuquerque Center
Thu 11:27:04 AM 35.3978 -101.0858 303° West 393 452 36,000  Level Albuquerque Center
Thu 11:28:06 AM 35.4564 -101.1958 303° West 389 448 36,000  Level Albuquerque Center
Thu 11:29:08 AM 35.5139 -101.3064 303° West 388 447 36,000  Level Albuquerque Center
Thu 11:30:10 AM 35.5733 -101.4175 303° West 392 451 36,000  Level Albuquerque Center
Thu 11:31:12 AM 35.6439 -101.5539 303° West 395 455 36,000  Level Albuquerque Center
Thu 11:32:14 AM 35.7047 -101.6694 303° West 404 465 36,000  Level Albuquerque Center
Thu 11:33:16 AM 35.7647 -101.7853 303° West 405 466 36,000  Level Albuquerque Center
Thu 11:34:18 AM 35.8264 -101.8997 304° West 405 466 36,000  Level Albuquerque Center
Thu 11:35:20 AM 35.8847 -102.0169 302° West 404 465 36,000  Level Albuquerque Center
Thu 11:36:22 AM 35.9561 -102.1544 303° West 399 459 36,000  Level Albuquerque Center
Thu 11:37:24 AM 36.0147 -102.2694 302° West 397 457 36,000  Level Albuquerque Center
Thu 11:38:26 AM 36.0742 -102.3831 303° West 397 457 36,000  Level Albuquerque Center
Thu 11:39:29 AM 36.1325 -102.4978 302° West 396 456 36,000  Level Albuquerque Center
Thu 11:40:31 AM 36.1919 -102.6139 302° West 398 458 36,000  Level Albuquerque Center
Thu 11:41:33 AM 36.2514 -102.7297 302° West 400 460 36,000  Level Albuquerque Center
Thu 11:42:35 AM 36.3214 -102.8708 302° West 402 463 36,000  Level Albuquerque Center
Thu 11:43:37 AM 36.3803 -102.9878 302° West 398 458 36,000  Level Albuquerque Center
Thu 11:44:39 AM 36.4386 -103.1042 302° West 395 455 36,000  Level Albuquerque Center
Thu 11:45:41 AM 36.4958 -103.2181 302° West 388 447 36,000  Level Albuquerque Center
Thu 11:46:43 AM 36.5531 -103.3333 302° West 389 448 36,000  Level Albuquerque Center
Thu 11:47:45 AM 36.6094 -103.4450 302° West 382 440 36,000  Level Albuquerque Center
Thu 11:48:47 AM 36.6733 -103.5744 302° West 385 443 36,000  Level Albuquerque Center
Thu 11:49:48 AM 36.7264 -103.6819 302° West 382 440 36,000  Level Albuquerque Center
Thu 11:50:50 AM 36.7894 -103.8078 302° West 381 438 36,000  Level Albuquerque Center
Thu 11:51:52 AM 36.8433 -103.9156 302° West 381 438 36,000  Level Albuquerque Center
Thu 11:52:54 AM 36.8961 -104.0256 301° West 383 441 36,000  Level Albuquerque Center
Thu 11:53:56 AM 36.9589 -104.1550 301° West 387 445 36,000  Level Albuquerque Center
Thu 11:54:58 AM 37.0136 -104.2678 301° West 392 451 36,000 -459 Level Albuquerque Center
Thu 11:56:33 AM 37.1064 -104.4597 301° West 403 464 34,800 -764 Descending Denver Center
Thu 11:57:35 AM 37.1708 -104.5944 301° West 403 464 34,000 -387 Descending Denver Center
Thu 11:58:37 AM 37.2239 -104.7064 301° West 391 450 34,000  Level Denver Center
Thu 11:59:39 AM 37.2778 -104.8194 301° West 391 450 34,000  Level Denver Center
Thu 12:00:41 PM 37.3403 -104.9494 301° West 390 449 34,000  Level Denver Center
Thu 12:01:43 PM 37.3925 -105.0581 301° West 382 440 34,000  Level Denver Center
Thu 12:02:45 PM 37.4461 -105.1725 301° West 374 430 34,000  Level Denver Center
Thu 12:03:47 PM 37.5044 -105.2986 300° West 373 429 34,000  Level Denver Center
Thu 12:04:50 PM 37.5608 -105.4200 300° West 376 433 34,000  Level Denver Center
Thu 12:05:52 PM 37.6136 -105.5319 301° West 384 442 34,000  Level Denver Center
Thu 12:06:54 PM 37.6756 -105.6617 301° West 386 444 34,000  Level Denver Center
Thu 12:07:56 PM 37.7272 -105.7728 300° West 384 442 34,000  Level Denver Center
Thu 12:09:10 PM 37.7956 -105.9219 300° West 384 442 34,000  Level Denver Center
Thu 12:10:12 PM 37.8469 -106.0342 300° West 384 442 34,000  Level Denver Center
Thu 12:11:14 PM 37.9069 -106.1658 300° West 384 442 34,000  Level Denver Center
Thu 12:12:16 PM 37.9581 -106.2792 300° West 389 448 34,000  Level Denver Center
Thu 12:13:18 PM 38.0178 -106.4097 300° West 384 442 34,000 -532 Level Denver Center
Thu 12:14:20 PM 38.0744 -106.5353 300° West 386 444 32,900 -1,248 Descending Denver Center
Thu 12:15:23 PM 38.1267 -106.6489 300° West 387 445 31,400 -1,584 Descending Denver Center
Thu 12:16:25 PM 38.1767 -106.7644 299° West 391 450 29,600 -1,935 Descending Denver Center
Thu 12:17:27 PM 38.2364 -106.8947 300° West 395 455 27,400 -2,032 Descending Denver Center
Thu 12:18:29 PM 38.2914 -107.0167 300° West 396 456 25,400 -1,935 Descending Denver Center
Thu 12:19:31 PM 38.3447 -107.1394 299° West 396 456 23,400 -1,984 Descending Denver Center
Thu 12:20:33 PM 38.4014 -107.2675 299° West 391 450 21,300 -2,081 Descending Denver Center
Thu 12:21:35 PM 38.4600 -107.3994 300° West 385 443 19,100 -1,694 Descending Denver Center
Thu 12:22:37 PM 38.5053 -107.5047 299° West 358 412 17,800 -1,694 Descending Denver Center
Thu 12:23:39 PM 38.5536 -107.6147 299° West 326 375 15,600 -1,403 Descending Denver Center
Thu 12:24:41 PM 38.5992 -107.7150 300° West 327 376 14,900 -339 Descending Denver Center
Thu 12:25:43 PM 38.6456 -107.8225 299° West 341 392 14,900  Level Denver Center
Thu 12:26:45 PM 38.6931 -107.9350 298° West 356 410 14,900  Level Denver Center
Thu 12:28:00 PM 38.7608 -108.0914 299° West 360 414 14,900  Level Denver Center
Thu 12:29:02 PM 38.8094 -108.2047 299° West 363 418 14,900 -677 Level Denver Center
Thu 12:30:04 PM 38.8586 -108.3203 299° West 364 419 13,500 -1,452 Descending Denver Center
Thu 12:31:06 PM 38.9181 -108.4344 304° West 365 420 11,900 -1,210 Descending Denver Center
Thu 12:32:08 PM 38.9886 -108.5086 321° Northwest 317 365 11,000 -629 Descending Denver Center
Thu 12:33:10 PM 39.0508 -108.5639 325° Northwest 268 308 10,600 -1,065 Descending Denver Center
Thu 12:34:12 PM 39.0828 -108.6475 296° West 242 278 8,800 -1,742 Descending Denver Center
Thu 12:35:14 PM 39.1256 -108.7081 312° West 242 278 7,000 -823 Descending Denver Center
Thu 12:36:16 PM 39.1608 -108.6469 53° Northeast 206 237 7,100 -532 Climbing Denver Center
Thu 12:37:18 PM 39.1611 -108.5917 90° East 164 189 5,900 -1,065 Descending Denver Center
Thu 12:38:20 PM 39.1364 -108.5475 126° Southeast 152 175 4,900 -532 Descending Denver Center
Thu 12:39:22 PM 39.1139 -108.5058 125° Southeast 152 175 4,800 -97 Descending Denver Center
Thu 12:41:00 PM 39.1167 -108.5167 90° East  Level FlightAware Approximate

Login

Don't have an account? Register now (free) for customized features, flight alerts, and more!